createdAt,value
2023-01-29T00:02:01.572Z,12.80
2023-01-29T00:06:06.796Z,9.20
2023-01-29T00:10:11.473Z,13.40
2023-01-29T00:14:14.963Z,8.60
2023-01-29T00:18:19.370Z,14.30
2023-01-29T00:22:27.976Z,11.67
2023-01-29T00:26:33.414Z,11.63
2023-01-29T00:30:39.114Z,11.77
2023-01-29T00:34:43.887Z,9.73
2023-01-29T00:38:54.844Z,9.90
2023-01-29T00:43:16.391Z,11.80
2023-01-29T00:47:33.559Z,9.60
2023-01-29T00:51:39.250Z,10.13
2023-01-29T00:55:45.902Z,8.73
2023-01-29T00:59:48.953Z,10.93
2023-01-29T01:03:53.433Z,10.90
2023-01-29T01:07:59.746Z,8.43
2023-01-29T01:12:03.103Z,9.30
2023-01-29T01:16:15.121Z,11.37
2023-01-29T01:20:19.233Z,9.77
2023-01-29T01:24:23.831Z,11.20
2023-01-29T01:28:27.351Z,9.13
2023-01-29T01:32:30.458Z,10.73
2023-01-29T01:36:36.453Z,10.60
2023-01-29T01:40:48.148Z,9.57
2023-01-29T01:44:58.691Z,11.40
2023-01-29T01:49:13.274Z,12.23
2023-01-29T01:53:20.464Z,12.23
2023-01-29T01:57:26.796Z,11.57
2023-01-29T02:01:42.975Z,8.70
2023-01-29T02:06:03.551Z,11.43
2023-01-29T02:10:14.344Z,9.60
2023-01-29T02:14:23.041Z,13.53
2023-01-29T02:18:26.066Z,10.00
2023-01-29T02:22:55.074Z,8.20
2023-01-29T02:27:07.666Z,10.27
2023-01-29T02:31:25.800Z,11.00
2023-01-29T02:35:37.637Z,12.37
2023-01-29T02:39:46.715Z,10.33
2023-01-29T02:43:56.886Z,8.17
2023-01-29T02:48:06.357Z,8.47
2023-01-29T02:52:19.090Z,10.23
2023-01-29T02:56:28.303Z,7.47
2023-01-29T03:00:37.049Z,6.03
2023-01-29T03:04:47.785Z,6.90
2023-01-29T03:08:58.827Z,4.40
2023-01-29T03:13:05.675Z,4.77
2023-01-29T03:17:11.904Z,3.63
2023-01-29T03:21:41.681Z,5.23
2023-01-29T03:26:03.089Z,5.20
2023-01-29T03:30:26.296Z,6.10
2023-01-29T03:34:39.009Z,3.63
2023-01-29T03:38:43.926Z,4.43
2023-01-29T03:42:58.892Z,3.60
2023-01-29T03:47:13.891Z,3.93
2023-01-29T03:51:25.977Z,4.20
2023-01-29T03:55:38.590Z,4.97
2023-01-29T03:59:51.010Z,5.30
2023-01-29T04:04:02.189Z,4.07
2023-01-29T04:08:17.721Z,3.93
2023-01-29T04:12:27.650Z,6.07
2023-01-29T04:16:38.851Z,5.30
2023-01-29T04:20:44.276Z,4.20
2023-01-29T04:24:48.650Z,6.17
2023-01-29T04:29:17.207Z,6.00
2023-01-29T04:33:33.376Z,4.50
2023-01-29T04:37:45.576Z,5.67
2023-01-29T04:41:56.937Z,8.20
2023-01-29T04:46:15.564Z,5.20
2023-01-29T04:50:30.033Z,6.10
2023-01-29T04:54:51.433Z,5.00
2023-01-29T04:58:59.541Z,5.77
2023-01-29T05:03:08.258Z,6.30
2023-01-29T05:07:17.360Z,5.83
2023-01-29T05:11:21.625Z,5.60
2023-01-29T05:15:27.187Z,5.30
2023-01-29T05:19:31.696Z,7.60
2023-01-29T05:23:34.849Z,4.30
2023-01-29T05:27:56.167Z,5.37
2023-01-29T05:31:59.367Z,6.37
2023-01-29T05:36:04.163Z,5.83
2023-01-29T05:40:14.382Z,10.63
2023-01-29T05:44:17.810Z,4.90
2023-01-29T05:48:23.797Z,6.57
2023-01-29T05:52:31.812Z,8.93
2023-01-29T05:56:34.868Z,9.80
2023-01-29T06:00:38.176Z,9.67
2023-01-29T06:04:41.474Z,7.43
2023-01-29T06:08:46.005Z,9.37
2023-01-29T06:12:50.861Z,8.53
2023-01-29T06:16:56.420Z,8.50
2023-01-29T06:21:06.331Z,8.50
2023-01-29T06:25:14.347Z,9.07
2023-01-29T06:29:20.109Z,7.80
2023-01-29T06:33:25.559Z,8.73
2023-01-29T06:37:28.676Z,8.17
2023-01-29T06:41:33.462Z,9.90
2023-01-29T06:45:39.499Z,10.03
2023-01-29T06:49:42.578Z,10.97
2023-01-29T06:53:46.648Z,11.00
2023-01-29T06:57:51.270Z,12.73
2023-01-29T07:01:54.371Z,11.00
2023-01-29T07:06:01.757Z,9.00
2023-01-29T07:10:05.806Z,8.97
2023-01-29T07:14:10.429Z,9.77
2023-01-29T07:18:18.371Z,10.77
2023-01-29T07:22:24.359Z,9.57
2023-01-29T07:26:27.547Z,10.10
2023-01-29T07:30:32.503Z,11.03
2023-01-29T07:34:35.529Z,11.57
2023-01-29T07:38:38.953Z,18.50
2023-01-29T07:42:44.109Z,11.60
2023-01-29T07:46:48.982Z,10.23
2023-01-29T07:50:58.512Z,12.67
2023-01-29T07:55:01.886Z,12.60
2023-01-29T07:59:04.918Z,11.37
2023-01-29T08:03:13.739Z,12.57
2023-01-29T08:07:17.042Z,11.97
2023-01-29T08:11:20.039Z,14.17
2023-01-29T08:15:23.333Z,15.17
2023-01-29T08:19:28.039Z,12.87
2023-01-29T08:23:31.189Z,14.53
2023-01-29T08:27:38.206Z,13.63
2023-01-29T08:31:43.868Z,11.23
2023-01-29T08:35:51.760Z,17.30
2023-01-29T08:39:54.870Z,9.40
2023-01-29T08:44:02.794Z,11.17
2023-01-29T08:48:09.938Z,11.13
2023-01-29T08:52:14.439Z,11.50
2023-01-29T08:56:17.525Z,12.73
2023-01-29T09:00:21.321Z,12.13
2023-01-29T09:04:25.055Z,11.73
2023-01-29T09:08:29.585Z,14.53
2023-01-29T09:12:32.666Z,44.90
2023-01-29T09:16:38.231Z,182.57
2023-01-29T09:20:41.618Z,17.27
2023-01-29T09:24:46.254Z,20.83
2023-01-29T09:28:50.365Z,34.53
2023-01-29T09:32:54.681Z,18.90
2023-01-29T09:37:00.676Z,39.33
2023-01-29T09:41:16.397Z,10.67
2023-01-29T09:45:29.456Z,16.80
2023-01-29T09:49:37.608Z,26.33
2023-01-29T09:53:48.858Z,20.90
2023-01-29T09:57:57.275Z,19.47
2023-01-29T10:02:10.428Z,11.47
2023-01-29T10:06:32.388Z,26.40
2023-01-29T10:10:46.954Z,21.53
2023-01-29T10:15:11.381Z,15.73
2023-01-29T10:19:38.272Z,12.13
2023-01-29T10:23:48.462Z,12.57
2023-01-29T10:27:54.295Z,146.20
2023-01-29T10:32:06.029Z,12.20
2023-01-29T10:36:14.441Z,17.50
2023-01-29T10:40:22.087Z,13.13
2023-01-29T10:44:36.765Z,13.47
2023-01-29T10:48:59.908Z,19.40
2023-01-29T10:53:18.884Z,18.37
2023-01-29T10:57:39.329Z,16.40
2023-01-29T11:01:42.699Z,15.77
2023-01-29T11:05:54.363Z,62.87
2023-01-29T11:10:03.833Z,12.07
2023-01-29T11:14:12.680Z,21.23
2023-01-29T11:18:16.367Z,14.43
2023-01-29T11:22:26.993Z,13.30
2023-01-29T11:26:36.947Z,13.57
2023-01-29T11:30:42.695Z,11.53
2023-01-29T11:34:59.757Z,9.67
2023-01-29T11:39:22.948Z,13.03
2023-01-29T11:43:35.393Z,12.80
2023-01-29T11:47:38.674Z,11.50
2023-01-29T11:51:43.016Z,13.63
2023-01-29T11:55:54.498Z,24.63
2023-01-29T12:00:04.269Z,18.67
2023-01-29T12:04:20.744Z,15.60
2023-01-29T12:08:24.735Z,10.67
2023-01-29T12:12:36.056Z,12.73
2023-01-29T12:16:49.298Z,12.23
2023-01-29T12:20:59.666Z,13.10
2023-01-29T12:25:09.078Z,11.47
2023-01-29T12:29:28.748Z,14.70
2023-01-29T12:33:44.293Z,13.03
2023-01-29T12:37:53.397Z,13.43
2023-01-29T12:42:01.130Z,13.93
2023-01-29T12:46:09.840Z,12.73
2023-01-29T12:50:22.348Z,12.93
2023-01-29T12:54:34.483Z,11.10
2023-01-29T12:58:48.565Z,13.83
2023-01-29T13:02:59.135Z,11.20
2023-01-29T13:07:12.255Z,11.50
2023-01-29T13:11:22.633Z,13.67
2023-01-29T13:15:33.687Z,14.60
2023-01-29T13:19:43.334Z,14.03
2023-01-29T13:23:53.972Z,12.27
2023-01-29T13:27:57.159Z,13.73
2023-01-29T13:32:02.138Z,13.57
2023-01-29T13:36:16.781Z,12.53
2023-01-29T13:40:25.592Z,12.67
2023-01-29T13:44:32.992Z,11.77
2023-01-29T13:48:42.324Z,12.80
2023-01-29T13:52:53.756Z,13.43
2023-01-29T13:57:02.106Z,16.67
2023-01-29T14:01:05.435Z,16.60
2023-01-29T14:05:43.724Z,11.67
2023-01-29T14:10:14.359Z,12.40
2023-01-29T14:15:03.342Z,11.37
2023-01-29T14:19:20.426Z,17.83
2023-01-29T14:23:31.108Z,12.83
2023-01-29T14:27:39.361Z,12.07
2023-01-29T14:31:50.572Z,14.27
2023-01-29T14:35:56.411Z,13.17
2023-01-29T14:40:11.316Z,12.67
2023-01-29T14:44:50.007Z,15.13
2023-01-29T14:48:54.491Z,13.13
2023-01-29T14:53:14.668Z,13.00
2023-01-29T14:57:20.997Z,13.37
2023-01-29T15:01:27.182Z,11.63
2023-01-29T15:05:37.431Z,14.43
2023-01-29T15:09:49.165Z,12.00
2023-01-29T15:13:56.598Z,11.43
2023-01-29T15:18:09.320Z,12.60
2023-01-29T15:22:15.463Z,11.13
2023-01-29T15:26:21.035Z,14.27
2023-01-29T15:30:30.411Z,14.30
2023-01-29T15:34:33.762Z,14.83
2023-01-29T15:38:38.188Z,14.50
2023-01-29T15:42:49.010Z,12.93
2023-01-29T15:46:58.034Z,12.83
2023-01-29T15:51:05.342Z,14.70
2023-01-29T15:55:16.104Z,13.10
2023-01-29T15:59:26.231Z,12.47
2023-01-29T16:03:34.747Z,13.60
2023-01-29T16:07:38.839Z,14.23
2023-01-29T16:11:44.267Z,11.90
2023-01-29T16:15:57.079Z,14.43
2023-01-29T16:20:03.890Z,12.83
2023-01-29T16:24:11.889Z,13.50
2023-01-29T16:28:18.690Z,16.07
2023-01-29T16:32:29.490Z,16.50
2023-01-29T16:36:32.603Z,13.97
2023-01-29T16:40:40.516Z,16.07
2023-01-29T16:44:52.162Z,22.67
2023-01-29T16:48:55.746Z,17.30
2023-01-29T16:53:03.411Z,14.93
2023-01-29T16:57:07.289Z,16.53
2023-01-29T17:01:13.589Z,13.70
2023-01-29T17:05:23.478Z,18.30
2023-01-29T17:09:30.722Z,16.37
2023-01-29T17:13:46.888Z,14.23
2023-01-29T17:17:57.094Z,19.43
2023-01-29T17:22:08.426Z,26.70
2023-01-29T17:26:17.143Z,24.33
2023-01-29T17:30:24.241Z,24.87
2023-01-29T17:34:29.021Z,21.03
2023-01-29T17:38:33.314Z,23.80
2023-01-29T17:42:43.822Z,21.63
2023-01-29T17:46:51.813Z,19.30
2023-01-29T17:50:58.794Z,24.87
2023-01-29T17:55:05.892Z,24.10
2023-01-29T17:59:18.240Z,27.93
2023-01-29T18:03:22.312Z,22.07
2023-01-29T18:07:29.162Z,35.97
2023-01-29T18:11:33.572Z,161.57
2023-01-29T18:15:38.846Z,91.53
2023-01-29T18:19:42.007Z,150.93
2023-01-29T18:23:48.222Z,76.77
2023-01-29T18:27:53.938Z,1012.17
2023-01-29T18:32:02.486Z,656.07
2023-01-29T18:36:07.858Z,1999.90
2023-01-29T18:40:17.115Z,621.87
2023-01-29T18:44:20.621Z,1999.90
2023-01-29T18:48:26.430Z,1296.63
2023-01-29T18:52:29.451Z,179.67
2023-01-29T18:57:08.608Z,64.70
2023-01-29T19:01:09.418Z,63.07
2023-01-29T19:05:12.960Z,34.97
2023-01-29T19:09:16.308Z,27.97
2023-01-29T19:13:21.162Z,24.43
2023-01-29T19:17:27.159Z,20.67
2023-01-29T19:21:35.888Z,23.53
2023-01-29T19:25:39.561Z,23.53
2023-01-29T19:29:44.019Z,22.20
2023-01-29T19:33:47.439Z,21.73
2023-01-29T19:37:53.607Z,24.30
2023-01-29T19:41:57.056Z,21.20
2023-01-29T19:46:05.077Z,21.90
2023-01-29T19:50:16.846Z,21.90
2023-01-29T19:54:23.285Z,24.80
2023-01-29T19:58:26.586Z,25.53
2023-01-29T20:02:35.536Z,24.23
2023-01-29T20:06:38.711Z,31.77
2023-01-29T20:10:46.694Z,26.83
2023-01-29T20:14:50.758Z,24.03
2023-01-29T20:18:56.224Z,22.60
2023-01-29T20:23:35.294Z,26.43
2023-01-29T20:27:39.970Z,28.87
2023-01-29T20:31:43.142Z,28.97
2023-01-29T20:35:53.920Z,24.93
2023-01-29T20:39:58.878Z,27.20
2023-01-29T20:44:01.907Z,26.67
2023-01-29T20:48:06.305Z,29.97
2023-01-29T20:52:11.435Z,26.00
2023-01-29T20:56:16.265Z,28.13
2023-01-29T21:00:25.116Z,28.30
2023-01-29T21:04:31.318Z,28.23
2023-01-29T21:08:39.273Z,26.47
2023-01-29T21:12:43.582Z,28.27
2023-01-29T21:16:46.595Z,34.83
2023-01-29T21:20:51.180Z,31.00
2023-01-29T21:24:58.938Z,31.97
2023-01-29T21:29:05.424Z,29.43
2023-01-29T21:33:09.429Z,30.60
2023-01-29T21:37:15.187Z,29.67
2023-01-29T21:41:40.673Z,29.03
2023-01-29T21:45:44.443Z,44.23
2023-01-29T21:49:47.903Z,28.63
2023-01-29T21:53:59.785Z,32.43
2023-01-29T21:58:04.453Z,32.67
2023-01-29T22:02:14.485Z,33.10
2023-01-29T22:06:18.015Z,30.13
2023-01-29T22:10:23.830Z,34.57
2023-01-29T22:14:30.511Z,23.70
2023-01-29T22:18:35.269Z,31.70
2023-01-29T22:22:38.413Z,33.17
2023-01-29T22:26:42.892Z,38.93
2023-01-29T22:30:49.943Z,41.63
2023-01-29T22:34:54.528Z,32.30
2023-01-29T22:38:58.263Z,33.90
2023-01-29T22:43:03.375Z,36.10
2023-01-29T22:47:10.799Z,30.03
2023-01-29T22:51:16.922Z,31.30
2023-01-29T22:55:20.044Z,27.50
2023-01-29T22:59:30.157Z,34.27
2023-01-29T23:03:35.813Z,34.47
2023-01-29T23:07:38.892Z,37.90
2023-01-29T23:11:44.240Z,36.13
2023-01-29T23:15:48.275Z,35.67
2023-01-29T23:19:53.187Z,34.90
2023-01-29T23:23:58.534Z,34.97
2023-01-29T23:28:03.538Z,37.10
2023-01-29T23:32:07.986Z,37.17
2023-01-29T23:36:15.981Z,37.13
2023-01-29T23:40:19.487Z,37.63
2023-01-29T23:44:23.360Z,41.73
2023-01-29T23:48:29.441Z,39.00
2023-01-29T23:52:33.831Z,38.00
2023-01-29T23:56:37.257Z,39.67
